Main page
METAR-TAF:

METAR-TAF

Airports :

Shenyang Taoxian International Airport

Shenyang, China

latitude: 41-48N, longitude: 123-24E, elevation: 35 m

Current weather observation

The report was made 15 minutes ago, at 18:30 UTC
Wind 2 kt from variable directions
Temperature -7°C
Humidity 86%
Pressure 1020 hPa
Visibility: 3500 m
mist

METAR: ZYTX 091830Z VRB01MPS 3500 BR NSC M07/M09 Q1020 NOSIG

Time: 02:45 (18:45 UTC)

Forecast

The report was made 5 hours and 30 minutes ago, at 13:15 UTC
Forecast valid from 09 at 18 UTC to 10 at 18 UTC
Wind 6 kt from the East
Visibility: 3000 m
Broken clouds at a height of 3000 ft
mist
Temporary
from 10 at 10 UTC to 10 at 16 UTC
light snow

TAF: ZYTX 091315Z 0918/1018 09003MPS 3000 BR BKN030 TX02/1006Z TNM08/21Z TEMPO 1010/1016 -SN

Weather observations and forecasts of more than 4000 airports (METAR and TAF reports).

The available stations are represented by yellow and red dots on the map.

Hover mouse over dot to see the name of the station.

Then click to see weather observations and forecasts.

To change the map : click on the green buttons with a black cross to zoom in, on the green button with a dash to zoom out, or on the green arrows for adjacent maps.


METAR-TAF: